Time;durP1;ratioP1;P1;durP2;ratioP2;P2;SDS_P1;SDS_P2;PMS_P1;PMS_P2;Temp;Humidity;BMP_temperature;BMP_pressure;BME280_temperature;BME280_humidity;BME280_pressure;Samples;Min_cycle;Max_cycle;Signal;HPM_P1;HPM_P2
2022/11/07 00:02:10;;;;;;;9.37;4.10;;;11.00;99.90;;;;;;5002674;28;20198;-65
2022/11/07 00:04:39;;;;;;;9.30;3.97;;;11.10;99.90;;;;;;5031550;27;20191;-65
2022/11/07 00:07:09;;;;;;;8.57;4.03;;;11.00;99.90;;;;;;4999963;28;20199;-65
2022/11/07 00:09:37;;;;;;;7.43;3.77;;;11.00;99.90;;;;;;4997355;28;20210;-64
2022/11/07 00:12:06;;;;;;;6.70;3.60;;;11.00;99.90;;;;;;5002007;28;20548;-65
2022/11/07 00:14:34;;;;;;;9.23;4.10;;;11.00;99.90;;;;;;5035362;28;20213;-65
2022/11/07 00:17:03;;;;;;;8.33;4.03;;;11.00;99.90;;;;;;5024104;28;20241;-65
2022/11/07 00:19:31;;;;;;;8.33;3.77;;;11.00;99.90;;;;;;5001046;28;20238;-64
2022/11/07 00:21:59;;;;;;;9.30;3.70;;;11.00;99.90;;;;;;4997539;28;20687;-64
2022/11/07 00:24:29;;;;;;;10.53;3.80;;;11.00;99.90;;;;;;4991649;28;20203;-65
2022/11/07 00:26:57;;;;;;;13.20;4.10;;;11.00;99.90;;;;;;4999283;28;20671;-65
2022/11/07 00:29:25;;;;;;;11.63;3.93;;;11.00;99.90;;;;;;4996292;28;20195;-65
2022/11/07 00:31:54;;;;;;;7.90;3.67;;;11.00;99.90;;;;;;4992385;28;20207;-65
2022/11/07 00:34:22;;;;;;;8.83;3.90;;;11.00;99.90;;;;;;5003120;28;20567;-65
2022/11/07 00:36:50;;;;;;;11.97;3.47;;;11.00;99.90;;;;;;5054240;28;20205;-65
2022/11/07 00:39:22;;;;;;;9.47;3.83;;;11.00;99.90;;;;;;5037017;28;20687;-65
2022/11/07 00:41:51;;;;;;;9.87;4.03;;;11.00;99.90;;;;;;5002091;28;20206;-64
2022/11/07 00:44:21;;;;;;;11.20;3.27;;;11.00;99.90;;;;;;5010115;28;20197;-65
2022/11/07 00:46:50;;;;;;;8.77;3.50;;;11.10;99.90;;;;;;5004376;28;20277;-65
2022/11/07 00:49:18;;;;;;;8.57;3.27;;;11.10;99.90;;;;;;4991715;28;20194;-65
2022/11/07 00:51:46;;;;;;;13.90;3.90;;;11.10;99.90;;;;;;5003372;28;20561;-64
2022/11/07 00:54:15;;;;;;;9.83;3.47;;;11.20;99.90;;;;;;5002463;28;20228;-64
2022/11/07 00:56:43;;;;;;;15.40;3.50;;;11.20;99.90;;;;;;5006389;28;20197;-65
2022/11/07 00:59:13;;;;;;;14.70;4.00;;;11.30;99.90;;;;;;4994122;28;20211;-65
2022/11/07 01:01:41;;;;;;;9.07;3.60;;;11.30;99.90;;;;;;5037154;27;20532;-65
2022/11/07 01:07:10;;;;;;;10.23;3.50;;;11.40;99.90;;;;;;4978437;28;20249;-65
2022/11/07 01:09:38;;;;;;;11.63;3.87;;;11.40;99.90;;;;;;4995009;28;20225;-65
2022/11/07 01:12:07;;;;;;;8.97;3.00;;;11.40;99.90;;;;;;5018552;28;20213;-65
2022/11/07 01:14:37;;;;;;;16.10;3.47;;;11.40;99.90;;;;;;5036252;28;20202;-65
2022/11/07 01:17:05;;;;;;;13.00;3.30;;;11.50;99.90;;;;;;5007140;28;20202;-65
2022/11/07 01:19:33;;;;;;;16.67;3.67;;;11.50;99.90;;;;;;5008484;28;20238;-65
2022/11/07 01:22:02;;;;;;;11.90;3.40;;;11.60;99.90;;;;;;5005022;28;20205;-65
2022/11/07 01:24:30;;;;;;;8.97;3.37;;;11.60;99.90;;;;;;5023146;28;20744;-65
2022/11/07 01:26:58;;;;;;;12.50;3.10;;;11.60;99.90;;;;;;5003646;28;20198;-64
2022/11/07 01:29:27;;;;;;;10.13;3.10;;;11.70;99.90;;;;;;5009503;28;20187;-65
2022/11/07 01:31:56;;;;;;;10.33;3.10;;;11.70;99.90;;;;;;4992180;28;20723;-65
2022/11/07 01:34:24;;;;;;;13.70;3.13;;;11.70;99.90;;;;;;5022717;27;20199;-65
2022/11/07 01:36:53;;;;;;;9.73;2.97;;;11.70;99.90;;;;;;4994392;28;20213;-65
2022/11/07 01:39:21;;;;;;;16.57;3.13;;;11.70;99.90;;;;;;4997282;28;20210;-65
2022/11/07 01:41:49;;;;;;;9.40;3.27;;;11.70;99.90;;;;;;4997671;28;20287;-65
2022/11/07 01:44:49;;;;;;;16.70;3.63;;;11.70;99.90;;;;;;5011007;28;20202;-65
2022/11/07 01:47:19;;;;;;;11.87;3.27;;;11.70;99.90;;;;;;5009450;28;20206;-64
2022/11/07 01:49:48;;;;;;;9.13;3.40;;;11.80;99.90;;;;;;5006472;28;20210;-65
2022/11/07 01:52:21;;;;;;;12.37;3.10;;;11.70;99.90;;;;;;5011962;28;20209;-65
2022/11/07 01:54:55;;;;;;;16.17;3.37;;;11.70;99.90;;;;;;4998104;28;20707;-64
2022/11/07 01:57:27;;;;;;;14.17;3.07;;;11.70;99.90;;;;;;4999335;28;20281;-65
2022/11/07 02:00:00;;;;;;;14.20;3.73;;;11.80;99.90;;;;;;5009139;28;20225;-65
2022/11/07 02:02:34;;;;;;;9.97;3.20;;;11.70;99.90;;;;;;5005966;28;20202;-65
2022/11/07 02:05:05;;;;;;;11.37;3.20;;;11.70;99.90;;;;;;5001900;28;20189;-65
2022/11/07 02:07:33;;;;;;;14.13;3.13;;;11.70;99.90;;;;;;4998668;28;20203;-65
2022/11/07 02:10:03;;;;;;;9.97;3.30;;;11.70;99.90;;;;;;4995536;28;20202;-65
2022/11/07 02:12:31;;;;;;;13.17;3.17;;;11.80;99.90;;;;;;5003300;28;20540;-65
2022/11/07 02:15:00;;;;;;;15.07;3.57;;;11.80;99.90;;;;;;5004948;28;20214;-65
2022/11/07 02:17:29;;;;;;;13.63;3.40;;;11.80;99.90;;;;;;4999688;28;20506;-65
2022/11/07 02:19:58;;;;;;;8.60;2.80;;;11.80;99.90;;;;;;5004058;28;20222;-65
2022/11/07 02:22:39;;;;;;;11.87;3.13;;;11.80;99.90;;;;;;5002847;28;20214;-65
2022/11/07 02:25:11;;;;;;;8.23;3.50;;;11.80;99.90;;;;;;5007509;28;20198;-65
2022/11/07 02:27:41;;;;;;;14.70;3.80;;;11.80;99.90;;;;;;4998661;28;20202;-65
2022/11/07 02:30:14;;;;;;;24.40;3.90;;;11.80;99.90;;;;;;5001029;28;20195;-65
2022/11/07 02:32:43;;;;;;;14.57;3.40;;;11.80;99.90;;;;;;5005196;28;20199;-65
2022/11/07 02:35:32;;;;;;;14.17;3.43;;;11.80;99.90;;;;;;5028797;28;20252;-65
2022/11/07 02:38:01;;;;;;;18.60;3.47;;;11.80;99.90;;;;;;5000779;28;20204;-65
2022/11/07 02:40:32;;;;;;;20.20;3.43;;;11.80;99.90;;;;;;5005937;28;20258;-65
2022/11/07 02:43:00;;;;;;;10.70;3.43;;;11.80;99.90;;;;;;4995933;28;20337;-65
2022/11/07 02:45:32;;;;;;;16.47;3.57;;;11.80;99.90;;;;;;5006543;28;20190;-64
2022/11/07 02:48:01;;;;;;;15.80;3.17;;;11.80;99.90;;;;;;5004000;28;20874;-65
2022/11/07 02:50:29;;;;;;;19.30;3.30;;;11.80;99.90;;;;;;4992266;28;20203;-65
2022/11/07 02:52:57;;;;;;;23.17;3.50;;;11.80;99.90;;;;;;4994535;28;20225;-65
2022/11/07 02:55:26;;;;;;;12.73;3.50;;;11.80;99.90;;;;;;4997731;28;20708;-65
2022/11/07 02:57:56;;;;;;;15.13;3.40;;;11.80;99.90;;;;;;4994510;28;20199;-65
2022/11/07 03:00:24;;;;;;;12.23;3.20;;;11.80;99.90;;;;;;5021823;28;20700;-64
2022/11/07 03:02:53;;;;;;;22.93;4.07;;;11.80;99.90;;;;;;5001115;28;20199;-64
2022/11/07 03:05:21;;;;;;;18.57;3.57;;;11.70;99.90;;;;;;5002187;28;20206;-65
2022/11/07 03:07:49;;;;;;;23.17;4.10;;;11.70;99.90;;;;;;5004397;28;20217;-65
2022/11/07 03:10:18;;;;;;;17.83;3.43;;;11.70;99.90;;;;;;5001988;28;20213;-65
2022/11/07 03:12:46;;;;;;;14.37;3.13;;;11.70;99.90;;;;;;5014144;28;20201;-65
2022/11/07 03:15:20;;;;;;;20.27;2.93;;;11.70;99.90;;;;;;4996254;28;20230;-65
2022/11/07 03:17:49;;;;;;;10.67;3.73;;;11.70;99.90;;;;;;5002131;28;20254;-65
2022/11/07 03:20:17;;;;;;;18.73;3.43;;;11.80;99.90;;;;;;4998234;28;20218;-64
2022/11/07 03:22:46;;;;;;;16.30;3.50;;;11.80;99.90;;;;;;4998713;28;20194;-65
2022/11/07 03:25:15;;;;;;;14.23;3.73;;;11.80;99.90;;;;;;4999998;28;20206;-65
2022/11/07 03:27:47;;;;;;;15.47;3.27;;;11.80;99.90;;;;;;4999131;28;20195;-64
2022/11/07 03:30:17;;;;;;;9.13;2.90;;;11.80;99.90;;;;;;4996874;28;20199;-64
2022/11/07 03:32:46;;;;;;;16.87;3.63;;;11.80;99.90;;;;;;5009379;28;20199;-65
2022/11/07 03:35:14;;;;;;;9.77;2.90;;;11.80;99.90;;;;;;4994184;28;20203;-65
2022/11/07 03:37:45;;;;;;;12.53;3.60;;;11.80;99.90;;;;;;5000006;28;20194;-65
2022/11/07 03:40:13;;;;;;;12.87;3.37;;;11.80;99.90;;;;;;4993210;28;20593;-65
2022/11/07 03:42:43;;;;;;;9.97;2.97;;;11.80;99.90;;;;;;4999087;28;20206;-65
2022/11/07 03:45:13;;;;;;;18.20;3.37;;;11.80;99.90;;;;;;5029204;27;20199;-65
2022/11/07 03:47:45;;;;;;;17.30;3.07;;;11.90;99.90;;;;;;4999484;28;20210;-65
2022/11/07 03:50:16;;;;;;;15.97;3.00;;;11.90;99.90;;;;;;5008355;28;20206;-65
2022/11/07 03:52:45;;;;;;;13.23;3.27;;;11.90;99.90;;;;;;5007930;28;20195;-65
2022/11/07 03:55:14;;;;;;;18.50;3.20;;;11.90;99.90;;;;;;4995792;28;20203;-65
2022/11/07 03:57:43;;;;;;;13.10;2.77;;;12.00;99.90;;;;;;4992025;28;20295;-65
2022/11/07 04:00:13;;;;;;;17.07;3.43;;;12.00;99.90;;;;;;5008392;28;20676;-65
2022/11/07 04:02:43;;;;;;;12.80;2.77;;;12.00;99.90;;;;;;5002471;28;20206;-65
2022/11/07 04:05:12;;;;;;;20.50;3.20;;;12.00;99.90;;;;;;4995158;28;20229;-65
2022/11/07 04:07:40;;;;;;;15.00;3.00;;;12.00;99.90;;;;;;4996192;28;20225;-65
2022/11/07 04:10:09;;;;;;;17.23;3.53;;;12.10;99.90;;;;;;5000987;28;20275;-65
2022/11/07 04:18:10;;;;;;;13.77;2.93;;;12.10;99.90;;;;;;4997974;28;20241;-65
2022/11/07 04:20:38;;;;;;;12.80;3.10;;;12.10;99.90;;;;;;4996372;28;20226;-65
2022/11/07 04:23:06;;;;;;;15.57;3.13;;;12.10;99.90;;;;;;5002187;28;20542;-64
2022/11/07 04:28:20;;;;;;;16.70;3.77;;;12.10;99.90;;;;;;5003996;28;20198;-64
2022/11/07 04:30:49;;;;;;;17.60;2.97;;;12.10;99.90;;;;;;4993763;28;20203;-65
2022/11/07 04:33:18;;;;;;;10.97;3.27;;;12.20;99.90;;;;;;4999818;28;20201;-64
2022/11/07 04:35:47;;;;;;;13.07;3.27;;;12.10;99.90;;;;;;4997953;28;20202;-64
2022/11/07 04:38:15;;;;;;;15.00;3.70;;;12.10;99.90;;;;;;4994829;28;20199;-65
2022/11/07 04:40:43;;;;;;;10.57;2.77;;;12.10;99.90;;;;;;4997285;28;20219;-65
2022/11/07 04:43:12;;;;;;;20.77;4.10;;;12.00;99.90;;;;;;5021630;28;20507;-65
2022/11/07 04:45:41;;;;;;;9.37;2.87;;;12.10;99.90;;;;;;4996191;28;20202;-65
2022/11/07 04:48:11;;;;;;;17.07;3.30;;;12.10;99.90;;;;;;4995445;28;20198;-65
2022/11/07 04:50:41;;;;;;;20.80;3.40;;;12.10;99.90;;;;;;4999396;28;20273;-65
2022/11/07 04:53:12;;;;;;;10.77;3.30;;;12.10;99.90;;;;;;5002717;28;20533;-65
2022/11/07 04:55:41;;;;;;;13.17;3.33;;;12.10;99.90;;;;;;5025701;28;20214;-65
2022/11/07 04:58:10;;;;;;;18.43;3.60;;;12.10;99.90;;;;;;5012067;28;20190;-65
2022/11/07 05:00:38;;;;;;;12.33;2.90;;;12.10;99.90;;;;;;5001241;28;20199;-65
2022/11/07 05:03:11;;;;;;;12.47;3.03;;;12.10;99.90;;;;;;4998142;28;20688;-65
2022/11/07 05:05:41;;;;;;;16.20;3.63;;;12.10;99.90;;;;;;5003874;28;20599;-64
2022/11/07 05:08:10;;;;;;;18.60;3.73;;;12.10;99.90;;;;;;5004002;28;20674;-65
2022/11/07 05:10:38;;;;;;;18.20;3.57;;;12.10;99.90;;;;;;5001505;28;20541;-65
2022/11/07 05:13:06;;;;;;;13.03;2.80;;;12.20;99.90;;;;;;5005111;28;20194;-65
2022/11/07 05:15:35;;;;;;;13.80;3.00;;;12.20;99.90;;;;;;4996966;28;20642;-65
2022/11/07 05:18:04;;;;;;;18.57;3.50;;;12.20;99.90;;;;;;4997532;28;20703;-65
2022/11/07 05:20:34;;;;;;;11.30;3.50;;;12.20;99.90;;;;;;4996642;28;20187;-65
2022/11/07 05:23:13;;;;;;;13.53;3.00;;;12.20;99.90;;;;;;5004548;28;20219;-65
2022/11/07 05:25:48;;;;;;;19.37;3.23;;;12.20;99.90;;;;;;4997692;28;20244;-65
2022/11/07 05:28:18;;;;;;;15.33;3.70;;;12.10;99.90;;;;;;5005823;28;20199;-65
2022/11/07 05:30:59;;;;;;;18.47;3.40;;;12.20;99.90;;;;;;4993922;28;20286;-65
2022/11/07 05:33:29;;;;;;;19.30;3.77;;;12.20;99.90;;;;;;4996975;28;20202;-65
2022/11/07 05:35:57;;;;;;;14.73;3.33;;;12.20;99.90;;;;;;4994092;28;20205;-65
2022/11/07 05:38:26;;;;;;;9.53;2.90;;;12.20;99.90;;;;;;4999939;28;20805;-65
2022/11/07 05:40:55;;;;;;;16.47;3.50;;;12.30;99.90;;;;;;5000934;28;20194;-65
2022/11/07 05:43:23;;;;;;;20.47;2.97;;;12.40;99.90;;;;;;4999328;28;20839;-65
2022/11/07 05:45:51;;;;;;;12.10;2.90;;;12.40;99.90;;;;;;5002287;28;20637;-65
2022/11/07 05:48:20;;;;;;;16.13;3.00;;;12.30;99.90;;;;;;4996640;28;20566;-65
2022/11/07 05:50:48;;;;;;;12.87;3.10;;;12.30;99.90;;;;;;4999819;28;20225;-65
2022/11/07 05:53:19;;;;;;;14.27;3.10;;;12.30;99.90;;;;;;5031021;28;20187;-65
2022/11/07 05:55:49;;;;;;;15.83;3.07;;;12.30;99.90;;;;;;5005307;28;20202;-65
2022/11/07 05:58:18;;;;;;;22.17;3.40;;;12.20;99.90;;;;;;4997769;28;20210;-65
2022/11/07 06:00:47;;;;;;;16.40;3.20;;;12.20;99.90;;;;;;5001108;28;20206;-65
2022/11/07 06:03:16;;;;;;;15.43;3.57;;;12.10;99.90;;;;;;4999701;28;20748;-65
2022/11/07 06:05:46;;;;;;;16.43;3.67;;;12.10;99.90;;;;;;5015232;28;20647;-65
2022/11/07 06:08:14;;;;;;;14.23;2.90;;;12.10;99.90;;;;;;4995131;28;20214;-65
2022/11/07 06:10:43;;;;;;;17.40;3.77;;;12.10;99.90;;;;;;5006930;28;20210;-65
2022/11/07 06:13:15;;;;;;;14.60;3.13;;;12.00;99.90;;;;;;4995092;28;20290;-65
2022/11/07 06:15:45;;;;;;;15.80;3.13;;;12.00;99.90;;;;;;4998972;28;20207;-65
2022/11/07 06:18:16;;;;;;;17.93;2.90;;;12.00;99.90;;;;;;5001218;28;20226;-65
2022/11/07 06:20:44;;;;;;;17.10;2.97;;;12.10;99.90;;;;;;5002915;28;20653;-65
2022/11/07 06:23:12;;;;;;;15.27;3.53;;;12.10;99.90;;;;;;4997436;28;20237;-65
2022/11/07 06:25:41;;;;;;;16.27;2.93;;;12.10;99.90;;;;;;5003217;28;20210;-65
2022/11/07 06:28:11;;;;;;;18.73;4.07;;;12.10;99.90;;;;;;5006364;28;20210;-65
2022/11/07 06:30:41;;;;;;;14.30;3.10;;;12.10;99.90;;;;;;5008769;28;20194;-65
2022/11/07 06:33:12;;;;;;;17.17;3.67;;;12.10;99.90;;;;;;4996225;28;20194;-65
2022/11/07 06:35:41;;;;;;;14.40;3.10;;;12.00;99.90;;;;;;5010276;28;20194;-65
2022/11/07 06:38:12;;;;;;;15.23;3.67;;;12.10;99.90;;;;;;5011074;28;20198;-65
2022/11/07 06:40:41;;;;;;;14.93;3.57;;;12.00;99.90;;;;;;5000181;28;20198;-65
2022/11/07 06:43:11;;;;;;;17.37;2.90;;;12.00;99.90;;;;;;5003586;28;20250;-65
2022/11/07 06:45:42;;;;;;;8.60;3.03;;;12.00;99.90;;;;;;5005491;28;20198;-65
2022/11/07 06:48:11;;;;;;;17.93;3.53;;;12.00;99.90;;;;;;5006554;28;20201;-65
2022/11/07 06:50:40;;;;;;;18.47;3.03;;;12.00;99.90;;;;;;4997656;28;20195;-65
2022/11/07 06:53:10;;;;;;;14.40;3.40;;;12.00;99.90;;;;;;5006251;28;20662;-65
2022/11/07 06:55:39;;;;;;;19.10;3.33;;;12.00;99.90;;;;;;4996623;28;20310;-64
2022/11/07 06:58:08;;;;;;;13.93;2.70;;;12.00;99.90;;;;;;5000380;28;20206;-65
2022/11/07 07:00:36;;;;;;;14.97;3.50;;;12.00;99.90;;;;;;5015968;28;20190;-65
2022/11/07 07:03:06;;;;;;;16.40;3.43;;;12.00;99.90;;;;;;5017746;28;20251;-65
2022/11/07 07:05:35;;;;;;;14.67;2.80;;;11.90;99.90;;;;;;5001229;28;20264;-65
2022/11/07 07:08:04;;;;;;;11.57;2.97;;;11.90;99.90;;;;;;5008019;28;20229;-65
2022/11/07 07:10:36;;;;;;;12.03;2.87;;;11.90;99.90;;;;;;4998028;28;20203;-65
2022/11/07 07:13:04;;;;;;;14.17;3.67;;;12.00;99.90;;;;;;4995857;28;20280;-65
2022/11/07 07:15:33;;;;;;;13.57;3.53;;;11.90;99.90;;;;;;4997303;28;20208;-65
2022/11/07 07:18:19;;;;;;;14.37;3.20;;;12.00;99.90;;;;;;5004695;28;20546;-64
2022/11/07 07:20:48;;;;;;;13.50;3.40;;;12.00;99.90;;;;;;5005845;28;20736;-65
2022/11/07 07:23:17;;;;;;;11.27;3.00;;;12.10;99.90;;;;;;4993846;28;20218;-64
2022/11/07 07:25:46;;;;;;;12.07;2.87;;;12.10;99.90;;;;;;4991034;28;20191;-65
2022/11/07 07:28:15;;;;;;;13.87;3.33;;;12.10;99.90;;;;;;5018828;28;20202;-65
2022/11/07 07:30:43;;;;;;;14.93;3.20;;;12.10;99.90;;;;;;4996214;28;20206;-65
2022/11/07 07:33:20;;;;;;;11.37;3.00;;;12.20;99.90;;;;;;5002502;28;20239;-65
2022/11/07 07:35:48;;;;;;;21.17;3.57;;;12.20;99.90;;;;;;5003088;28;20191;-65
2022/11/07 07:38:17;;;;;;;18.27;3.20;;;12.30;99.90;;;;;;4991398;28;20203;-64
2022/11/07 07:40:45;;;;;;;15.53;3.37;;;12.40;99.90;;;;;;5000584;28;20205;-65
2022/11/07 07:43:14;;;;;;;11.87;2.77;;;12.40;99.90;;;;;;4993445;28;20222;-65
2022/11/07 07:45:43;;;;;;;13.90;3.37;;;12.40;99.90;;;;;;5011645;28;20657;-64
2022/11/07 07:48:11;;;;;;;16.50;3.63;;;12.50;99.90;;;;;;5007497;28;20201;-65
2022/11/07 07:50:41;;;;;;;23.77;4.00;;;12.50;99.90;;;;;;4990708;28;20195;-65
2022/11/07 07:53:09;;;;;;;16.27;3.37;;;12.60;99.90;;;;;;5006422;28;20194;-65
2022/11/07 07:55:38;;;;;;;15.27;3.27;;;12.60;99.90;;;;;;5003973;28;20214;-65
2022/11/07 07:58:06;;;;;;;16.97;3.57;;;12.70;99.90;;;;;;5006320;28;20202;-65
2022/11/07 08:00:34;;;;;;;13.50;3.23;;;12.70;99.90;;;;;;5002738;28;20192;-65
2022/11/07 08:03:05;;;;;;;13.13;3.60;;;12.80;99.90;;;;;;5005504;28;20217;-65
2022/11/07 08:05:34;;;;;;;9.87;3.00;;;12.80;99.90;;;;;;5009746;28;20213;-65
2022/11/07 08:08:05;;;;;;;14.13;3.03;;;12.80;99.90;;;;;;4998061;28;20227;-65
2022/11/07 08:10:33;;;;;;;16.10;3.37;;;12.90;99.90;;;;;;4994947;28;20202;-65
2022/11/07 08:13:10;;;;;;;18.90;4.17;;;13.00;99.90;;;;;;5008082;28;20277;-65
2022/11/07 08:15:38;;;;;;;14.87;3.20;;;13.00;99.90;;;;;;5008743;28;20193;-65
2022/11/07 08:18:07;;;;;;;11.70;2.67;;;13.10;99.90;;;;;;5005760;28;20626;-65
2022/11/07 08:20:35;;;;;;;12.37;3.20;;;13.20;99.90;;;;;;5023403;28;20194;-65
2022/11/07 08:23:06;;;;;;;13.73;3.37;;;13.20;99.90;;;;;;4992855;28;20510;-65
2022/11/07 08:25:48;;;;;;;14.17;3.20;;;13.20;99.90;;;;;;5000194;28;20190;-65
2022/11/07 08:28:16;;;;;;;13.23;2.90;;;13.20;99.90;;;;;;4997311;28;20583;-65
2022/11/07 08:30:45;;;;;;;15.37;3.00;;;13.20;99.90;;;;;;5005299;28;20195;-65
2022/11/07 08:33:13;;;;;;;18.40;3.07;;;13.30;99.90;;;;;;5005511;28;20198;-65
2022/11/07 08:35:42;;;;;;;9.70;2.80;;;13.30;99.90;;;;;;5006037;28;20195;-65
2022/11/07 08:38:12;;;;;;;19.40;3.33;;;13.30;99.90;;;;;;4992964;28;20649;-65
2022/11/07 08:40:40;;;;;;;12.97;2.90;;;13.30;99.90;;;;;;5000534;28;20211;-65
2022/11/07 08:43:09;;;;;;;17.47;3.40;;;13.30;99.90;;;;;;4999703;28;20211;-65
2022/11/07 08:45:37;;;;;;;18.60;3.17;;;13.40;99.90;;;;;;4999852;28;20190;-65
2022/11/07 08:48:06;;;;;;;17.23;3.40;;;13.40;99.90;;;;;;5003451;28;20213;-65
2022/11/07 08:50:34;;;;;;;14.70;3.33;;;13.40;99.90;;;;;;4994690;28;20194;-64
2022/11/07 08:53:03;;;;;;;20.03;3.60;;;13.50;99.90;;;;;;5004381;28;20214;-65
2022/11/07 08:55:32;;;;;;;15.43;3.23;;;13.60;99.90;;;;;;5006998;28;20197;-65
2022/11/07 08:58:02;;;;;;;14.83;2.73;;;13.70;99.90;;;;;;4999084;28;20209;-65
2022/11/07 09:00:31;;;;;;;9.80;2.83;;;13.90;99.90;;;;;;5003083;28;20202;-65
2022/11/07 09:03:02;;;;;;;14.77;3.73;;;14.00;99.90;;;;;;4995281;28;20218;-65
2022/11/07 09:05:51;;;;;;;16.80;3.10;;;14.20;99.90;;;;;;5005779;28;20218;-65
2022/11/07 09:08:19;;;;;;;9.90;2.67;;;14.20;99.90;;;;;;5000703;28;20220;-65
2022/11/07 09:10:49;;;;;;;19.77;3.50;;;14.30;99.90;;;;;;5011031;28;20526;-65
2022/11/07 09:13:19;;;;;;;10.40;3.23;;;14.30;99.90;;;;;;5004479;28;20198;-65
2022/11/07 09:15:48;;;;;;;18.13;3.17;;;14.40;99.90;;;;;;5009060;28;20622;-65
2022/11/07 09:18:19;;;;;;;16.37;3.93;;;14.50;99.90;;;;;;4991385;28;20701;-65
2022/11/07 09:20:47;;;;;;;8.90;3.07;;;14.40;99.90;;;;;;5010893;28;20190;-65
2022/11/07 09:23:15;;;;;;;14.37;3.23;;;14.40;99.90;;;;;;5011389;28;20218;-65
2022/11/07 09:25:45;;;;;;;19.03;3.37;;;14.40;99.90;;;;;;5012169;28;20285;-65
2022/11/07 09:28:15;;;;;;;17.33;2.73;;;14.40;99.90;;;;;;5000503;28;20540;-65
2022/11/07 09:30:44;;;;;;;16.87;2.83;;;14.40;99.90;;;;;;5009748;28;20209;-65
2022/11/07 09:33:12;;;;;;;8.70;2.83;;;14.50;99.90;;;;;;4993778;28;20199;-65
2022/11/07 09:35:41;;;;;;;15.00;3.30;;;14.70;99.90;;;;;;5009428;28;20645;-65
2022/11/07 09:38:13;;;;;;;17.57;3.47;;;14.60;99.90;;;;;;5011721;28;20194;-65
2022/11/07 09:40:48;;;;;;;12.80;2.97;;;14.40;99.90;;;;;;5000661;28;20206;-65
2022/11/07 09:43:38;;;;;;;17.33;3.20;;;14.40;99.90;;;;;;5004080;28;20737;-65
2022/11/07 09:46:18;;;;;;;16.17;3.23;;;14.40;99.90;;;;;;4992746;28;20196;-65
2022/11/07 09:48:52;;;;;;;7.33;3.13;;;14.40;99.90;;;;;;5001330;28;20225;-65
2022/11/07 09:51:26;;;;;;;11.77;3.27;;;14.40;99.90;;;;;;5005686;28;20202;-65
2022/11/07 09:53:59;;;;;;;11.93;3.13;;;14.50;99.90;;;;;;4995455;28;20663;-65
2022/11/07 09:56:32;;;;;;;10.27;2.63;;;14.50;99.90;;;;;;5026565;27;20188;-65
2022/11/07 09:59:06;;;;;;;10.23;3.10;;;14.50;99.90;;;;;;5011122;28;20201;-65
2022/11/07 10:01:41;;;;;;;17.60;3.10;;;14.50;99.90;;;;;;5009625;28;20645;-65
2022/11/07 10:04:15;;;;;;;8.90;2.87;;;14.50;99.90;;;;;;5009186;28;20668;-65
2022/11/07 10:06:57;;;;;;;12.07;3.13;;;14.50;99.90;;;;;;5008995;28;20202;-66
2022/11/07 10:09:35;;;;;;;15.60;3.13;;;14.40;99.90;;;;;;5012952;28;20267;-65
2022/11/07 10:12:15;;;;;;;13.37;3.37;;;14.50;99.90;;;;;;5008268;28;20458;-65
2022/11/07 10:14:56;;;;;;;11.40;2.87;;;14.50;99.90;;;;;;5012033;28;20199;-65
2022/11/07 10:17:35;;;;;;;7.83;3.17;;;14.40;99.90;;;;;;5004445;28;20201;-65
2022/11/07 10:20:13;;;;;;;17.43;3.37;;;14.30;99.90;;;;;;5004453;28;20210;-65
2022/11/07 10:22:52;;;;;;;13.43;3.20;;;14.30;99.90;;;;;;4993877;28;20192;-65
2022/11/07 10:25:28;;;;;;;11.07;3.00;;;14.20;99.90;;;;;;5006784;28;20213;-65
2022/11/07 10:28:12;;;;;;;14.87;2.97;;;14.30;99.90;;;;;;4998118;28;20854;-65
2022/11/07 10:30:44;;;;;;;18.57;3.47;;;14.40;99.90;;;;;;5009070;28;20190;-65
2022/11/07 10:33:24;;;;;;;15.63;3.50;;;14.40;99.90;;;;;;5000421;28;20201;-65
2022/11/07 10:35:56;;;;;;;16.37;3.43;;;14.60;99.90;;;;;;5007750;28;20581;-65
2022/11/07 10:38:27;;;;;;;13.90;3.33;;;14.60;99.90;;;;;;5003363;28;20195;-65
2022/11/07 10:40:56;;;;;;;11.47;3.10;;;14.70;99.90;;;;;;5005604;28;20546;-65
2022/11/07 10:43:32;;;;;;;13.30;3.30;;;14.80;99.90;;;;;;5001653;28;20210;-65
2022/11/07 10:46:05;;;;;;;15.77;3.30;;;14.90;99.90;;;;;;4999290;28;20199;-66
2022/11/07 10:48:34;;;;;;;12.43;2.83;;;15.00;99.90;;;;;;5001952;28;20206;-65
2022/11/07 10:51:03;;;;;;;8.47;2.60;;;15.10;99.90;;;;;;5031215;28;20207;-65
2022/11/07 10:53:31;;;;;;;10.50;3.07;;;15.10;99.90;;;;;;4998983;28;20214;-65
2022/11/07 10:55:59;;;;;;;14.67;3.53;;;15.20;99.90;;;;;;5002148;28;20663;-65
2022/11/07 10:58:34;;;;;;;8.27;2.87;;;15.40;99.90;;;;;;5013427;28;20582;-65
2022/11/07 11:01:06;;;;;;;16.60;2.77;;;15.40;99.90;;;;;;4998756;28;21932;-65
2022/11/07 11:03:40;;;;;;;9.93;3.20;;;15.50;99.90;;;;;;4999318;28;20740;-65
2022/11/07 11:06:22;;;;;;;14.73;3.20;;;15.60;99.90;;;;;;5004962;28;20292;-65
2022/11/07 11:08:52;;;;;;;9.50;2.73;;;15.80;99.90;;;;;;4991702;28;20223;-65
2022/11/07 11:11:31;;;;;;;8.37;2.47;;;15.90;99.90;;;;;;5004226;28;20193;-65
2022/11/07 11:14:07;;;;;;;10.33;2.43;;;15.80;99.90;;;;;;5005548;28;20195;-65
2022/11/07 11:16:39;;;;;;;8.87;2.50;;;15.70;99.90;;;;;;5031420;28;20195;-65
2022/11/07 11:19:21;;;;;;;10.87;2.50;;;15.50;99.90;;;;;;5015895;28;20229;-65
2022/11/07 11:21:51;;;;;;;11.33;2.43;;;15.50;99.90;;;;;;4991414;28;20203;-65
2022/11/07 11:24:32;;;;;;;7.53;2.70;;;15.40;99.90;;;;;;5000124;28;20577;-65
2022/11/07 11:27:05;;;;;;;13.70;2.73;;;15.30;99.90;;;;;;4997480;28;20206;-65
2022/11/07 11:29:41;;;;;;;7.60;2.20;;;15.20;99.90;;;;;;4999641;28;20206;-65
2022/11/07 11:32:23;;;;;;;9.77;2.50;;;15.10;99.90;;;;;;5003759;28;20193;-65
2022/11/07 11:35:11;;;;;;;9.03;2.53;;;15.00;99.90;;;;;;5010346;28;20207;-65
2022/11/07 11:37:45;;;;;;;9.73;2.43;;;15.10;99.90;;;;;;5000550;28;20190;-65
2022/11/07 11:40:18;;;;;;;11.87;2.60;;;15.10;99.90;;;;;;5007245;28;20198;-65
2022/11/07 11:42:51;;;;;;;7.23;2.30;;;15.20;99.90;;;;;;5035028;28;20196;-65
2022/11/07 11:45:29;;;;;;;10.23;2.50;;;15.20;99.90;;;;;;5007816;28;20220;-64
2022/11/07 11:48:07;;;;;;;8.77;2.90;;;15.20;99.90;;;;;;4999314;28;20202;-64
2022/11/07 11:50:43;;;;;;;9.77;2.80;;;15.10;99.90;;;;;;5017152;28;20203;-64
2022/11/07 11:53:15;;;;;;;10.20;2.77;;;15.10;99.90;;;;;;4993560;28;20201;-65
2022/11/07 11:55:50;;;;;;;8.27;2.63;;;15.10;99.90;;;;;;5022343;28;20200;-65
2022/11/07 11:58:33;;;;;;;12.87;2.60;;;15.10;99.90;;;;;;5000580;28;20257;-64
2022/11/07 12:01:07;;;;;;;12.23;2.47;;;15.00;99.90;;;;;;5008035;28;20206;-64
2022/11/07 12:04:00;;;;;;;9.23;2.30;;;15.00;99.90;;;;;;5031449;28;20222;-65
2022/11/07 12:06:39;;;;;;;7.20;2.43;;;15.00;99.90;;;;;;5004789;28;20194;-65
2022/11/07 12:09:23;;;;;;;12.53;2.70;;;15.10;99.90;;;;;;5003825;28;20216;-65
2022/11/07 12:12:04;;;;;;;5.97;2.40;;;15.20;99.90;;;;;;4995298;28;20205;-65
2022/11/07 12:14:55;;;;;;;10.83;2.70;;;15.20;99.90;;;;;;4998558;28;20215;-65
2022/11/07 12:17:32;;;;;;;8.77;2.23;;;15.30;99.90;;;;;;4992123;28;20217;-65
2022/11/07 12:20:10;;;;;;;5.03;2.40;;;15.40;99.90;;;;;;5003492;28;20206;-65
2022/11/07 12:22:49;;;;;;;15.63;3.60;;;15.40;99.90;;;;;;5001021;28;20242;-65
2022/11/07 12:25:24;;;;;;;10.17;2.50;;;15.40;99.90;;;;;;5011267;28;20208;-65
2022/11/07 12:28:01;;;;;;;7.80;2.30;;;15.50;99.90;;;;;;5005652;28;20198;-65
2022/11/07 12:30:41;;;;;;;9.67;2.10;;;15.50;99.90;;;;;;5009136;28;20198;-65
2022/11/07 12:33:21;;;;;;;6.20;1.97;;;15.50;99.90;;;;;;5006580;28;20203;-65
2022/11/07 12:35:54;;;;;;;7.57;2.50;;;15.50;99.90;;;;;;5008519;28;20281;-64
2022/11/07 12:38:55;;;;;;;10.03;2.80;;;15.50;99.90;;;;;;4999233;28;20639;-64
2022/11/07 12:41:33;;;;;;;8.77;2.40;;;15.50;99.90;;;;;;4997860;28;20211;-65
2022/11/07 12:44:15;;;;;;;11.00;2.33;;;15.60;99.90;;;;;;4995960;28;20204;-65
2022/11/07 12:46:49;;;;;;;13.23;2.97;;;15.70;99.90;;;;;;5031099;28;20210;-65
2022/11/07 12:50:03;;;;;;;6.50;2.20;;;15.60;99.90;;;;;;5007970;28;20202;-65
2022/11/07 12:52:53;;;;;;;11.57;2.80;;;15.50;99.90;;;;;;5037770;28;20227;-64
2022/11/07 12:55:29;;;;;;;11.10;3.07;;;15.50;99.90;;;;;;5005639;28;20195;-65
2022/11/07 12:58:01;;;;;;;11.33;2.63;;;15.60;99.90;;;;;;5008359;28;20200;-64
2022/11/07 13:00:29;;;;;;;8.10;2.83;;;15.60;99.90;;;;;;4996457;28;20200;-64
2022/11/07 13:03:20;;;;;;;9.50;2.77;;;15.70;99.90;;;;;;5006336;28;20200;-64
2022/11/07 13:06:02;;;;;;;9.23;2.50;;;15.80;99.90;;;;;;4989804;28;20220;-64
2022/11/07 13:08:37;;;;;;;11.70;2.50;;;15.80;99.90;;;;;;4989605;28;20885;-64
2022/11/07 13:11:15;;;;;;;10.63;2.73;;;15.80;99.90;;;;;;5006711;28;20278;-64
2022/11/07 13:13:54;;;;;;;6.37;2.90;;;15.70;99.90;;;;;;5007653;28;20192;-64